RZO183 LPPR-LPLA
Flight info
| Callsign | RZO183 |
|---|---|
| Flight time | 2h 28m |
| Altitude | 35000 |
| Route | ASMOV DCT DIRMA DCT ERPES/M080F350 DCT LENSI DCT BAVAS DCT LACTA |
| Aircraft | A21N/M-SDE2E3FGHIRWXY/LB1 |
Departure
| Time | 2026-04-21 20:20 |
|---|---|
| Airport | Francisco de Sá Carneiro Airport (LPPR) |
Arrival
| Time | 2026-04-21 22:48 |
|---|---|
| Airport | Lajes Airport (LPLA) |
| Time | Latitude | Longitude | Altitude | Speed | Heading |
|---|---|---|---|---|---|
| 2026-04-21 20:20 | 41.35484 | -8.70953 | 3864 ft | 269 kts | 346° |
| 2026-04-21 20:20 | 41.37341 | -8.71447 | 4500 ft | 281 kts | 346° |
| 2026-04-21 20:20 | 41.39236 | -8.72123 | 5278 ft | 284 kts | 331° |
| 2026-04-21 20:20 | 41.40810 | -8.73661 | 5963 ft | 281 kts | 303° |
| 2026-04-21 20:21 | 41.41680 | -8.75928 | 6638 ft | 274 kts | 276° |
| 2026-04-21 20:21 | 41.41738 | -8.78404 | 7386 ft | 265 kts | 254° |
| 2026-04-21 20:21 | 41.41357 | -8.80806 | 8199 ft | 267 kts | 250° |
| 2026-04-21 20:21 | 41.40932 | -8.83228 | 9019 ft | 270 kts | 250° |
| 2026-04-21 20:22 | 41.40306 | -8.85562 | 9832 ft | 266 kts | 235° |
| 2026-04-21 20:22 | 41.37627 | -8.89215 | 10538 ft | 299 kts | 216° |
| 2026-04-21 20:22 | 41.35937 | -8.91042 | 10797 ft | 320 kts | 217° |
| 2026-04-21 20:23 | 41.34188 | -8.92963 | 11035 ft | 340 kts | 217° |
| 2026-04-21 20:23 | 41.32331 | -8.95030 | 11253 ft | 357 kts | 218° |
| 2026-04-21 20:23 | 41.30397 | -8.97201 | 11632 ft | 367 kts | 218° |
| 2026-04-21 20:23 | 41.28430 | -8.99413 | 12171 ft | 372 kts | 218° |
| 2026-04-21 20:24 | 41.26452 | -9.01633 | 12743 ft | 374 kts | 218° |
| 2026-04-21 20:24 | 41.24456 | -9.03880 | 13378 ft | 377 kts | 218° |
| 2026-04-21 20:24 | 41.22454 | -9.06136 | 13935 ft | 379 kts | 218° |
| 2026-04-21 20:24 | 41.20463 | -9.08375 | 14463 ft | 380 kts | 218° |
| 2026-04-21 20:25 | 41.18435 | -9.10651 | 15083 ft | 382 kts | 219° |
| 2026-04-21 20:25 | 41.16409 | -9.12928 | 15689 ft | 383 kts | 219° |
| 2026-04-21 20:25 | 41.14370 | -9.15214 | 16192 ft | 384 kts | 219° |
| 2026-04-21 20:25 | 41.12325 | -9.17502 | 16642 ft | 385 kts | 219° |
| 2026-04-21 20:26 | 41.10281 | -9.19795 | 17071 ft | 386 kts | 219° |
| 2026-04-21 20:26 | 41.08219 | -9.22097 | 17496 ft | 388 kts | 219° |
| 2026-04-21 20:26 | 41.06152 | -9.24397 | 17933 ft | 390 kts | 219° |
| 2026-04-21 20:26 | 41.04101 | -9.26687 | 18340 ft | 391 kts | 219° |
| 2026-04-21 20:27 | 41.02012 | -9.29014 | 18696 ft | 393 kts | 219° |
| 2026-04-21 20:27 | 40.99923 | -9.31340 | 19051 ft | 395 kts | 219° |
| 2026-04-21 20:27 | 40.97818 | -9.33697 | 19445 ft | 397 kts | 220° |
| 2026-04-21 20:27 | 40.95775 | -9.36168 | 19827 ft | 400 kts | 223° |
| 2026-04-21 20:28 | 40.93792 | -9.38772 | 20191 ft | 402 kts | 224° |
| 2026-04-21 20:28 | 40.91803 | -9.41398 | 20564 ft | 405 kts | 224° |
| 2026-04-21 20:28 | 40.89804 | -9.44026 | 21003 ft | 408 kts | 224° |
| 2026-04-21 20:28 | 40.87867 | -9.46708 | 21500 ft | 411 kts | 229° |
| 2026-04-21 20:29 | 40.86194 | -9.49792 | 21958 ft | 415 kts | 237° |
| 2026-04-21 20:29 | 40.84955 | -9.53260 | 22314 ft | 420 kts | 247° |
| 2026-04-21 20:29 | 40.84203 | -9.57008 | 22645 ft | 427 kts | 255° |
| 2026-04-21 20:29 | 40.83702 | -9.60888 | 22944 ft | 429 kts | 256° |
| 2026-04-21 20:30 | 40.83222 | -9.64789 | 23227 ft | 431 kts | 256° |
| 2026-04-21 20:30 | 40.82729 | -9.68688 | 23503 ft | 432 kts | 256° |
| 2026-04-21 20:30 | 40.82227 | -9.72548 | 23801 ft | 432 kts | 256° |
| 2026-04-21 20:30 | 40.81710 | -9.76490 | 24132 ft | 430 kts | 256° |
| 2026-04-21 20:31 | 40.81204 | -9.80332 | 24437 ft | 429 kts | 256° |
| 2026-04-21 20:31 | 40.80693 | -9.84201 | 24771 ft | 428 kts | 256° |
| 2026-04-21 20:31 | 40.80180 | -9.88069 | 25112 ft | 427 kts | 256° |
| 2026-04-21 20:31 | 40.79667 | -9.91922 | 25440 ft | 425 kts | 256° |
| 2026-04-21 20:32 | 40.79156 | -9.95749 | 25772 ft | 424 kts | 256° |
| 2026-04-21 20:32 | 40.78643 | -9.99578 | 26090 ft | 423 kts | 256° |
| 2026-04-21 20:32 | 40.78141 | -10.03341 | 26405 ft | 422 kts | 257° |
| 2026-04-21 20:32 | 40.77631 | -10.07093 | 26713 ft | 421 kts | 256° |
| 2026-04-21 20:33 | 40.77111 | -10.10933 | 27016 ft | 420 kts | 257° |
| 2026-04-21 20:33 | 40.76601 | -10.14714 | 27326 ft | 419 kts | 257° |
| 2026-04-21 20:33 | 40.76088 | -10.18496 | 27641 ft | 418 kts | 257° |
| 2026-04-21 20:33 | 40.75582 | -10.22255 | 27969 ft | 417 kts | 257° |
| 2026-04-21 20:34 | 40.75071 | -10.26013 | 28285 ft | 415 kts | 257° |
| 2026-04-21 20:34 | 40.74561 | -10.29758 | 28597 ft | 414 kts | 257° |
| 2026-04-21 20:34 | 40.74050 | -10.33478 | 28897 ft | 413 kts | 257° |
| 2026-04-21 20:34 | 40.73545 | -10.37151 | 29203 ft | 412 kts | 257° |
| 2026-04-21 20:35 | 40.73038 | -10.40853 | 29497 ft | 411 kts | 257° |
| 2026-04-21 20:35 | 40.72530 | -10.44557 | 29799 ft | 410 kts | 257° |
| 2026-04-21 20:35 | 40.72018 | -10.48251 | 30057 ft | 409 kts | 257° |
| 2026-04-21 20:35 | 40.71509 | -10.51926 | 30286 ft | 408 kts | 257° |
| 2026-04-21 20:36 | 40.70998 | -10.55607 | 30516 ft | 408 kts | 257° |
| 2026-04-21 20:36 | 40.70488 | -10.59270 | 30761 ft | 407 kts | 257° |
| 2026-04-21 20:36 | 40.69977 | -10.62938 | 30998 ft | 406 kts | 257° |
| 2026-04-21 20:36 | 40.69472 | -10.66548 | 31221 ft | 405 kts | 257° |
| 2026-04-21 20:37 | 40.68953 | -10.70237 | 31433 ft | 405 kts | 257° |
| 2026-04-21 20:37 | 40.68445 | -10.73837 | 31640 ft | 404 kts | 257° |
| 2026-04-21 20:37 | 40.67932 | -10.77482 | 31849 ft | 404 kts | 257° |
| 2026-04-21 20:37 | 40.67419 | -10.81109 | 32054 ft | 403 kts | 257° |
| 2026-04-21 20:38 | 40.66902 | -10.84744 | 32251 ft | 403 kts | 257° |
| 2026-04-21 20:38 | 40.66391 | -10.88364 | 32458 ft | 403 kts | 257° |
| 2026-04-21 20:38 | 40.65876 | -10.91990 | 32643 ft | 402 kts | 257° |
| 2026-04-21 20:38 | 40.65358 | -10.95612 | 32838 ft | 402 kts | 257° |
| 2026-04-21 20:39 | 40.64332 | -11.02786 | 32872 ft | 401 kts | 257° |
| 2026-04-21 20:39 | 40.63295 | -11.09994 | 32851 ft | 401 kts | 257° |
| 2026-04-21 20:40 | 40.62247 | -11.17215 | 32844 ft | 401 kts | 257° |
| 2026-04-21 20:40 | 40.61200 | -11.24424 | 32850 ft | 401 kts | 257° |
| 2026-04-21 20:41 | 40.60162 | -11.31584 | 32856 ft | 401 kts | 257° |
| 2026-04-21 20:41 | 40.59114 | -11.38765 | 32844 ft | 400 kts | 257° |
| 2026-04-21 20:42 | 40.58055 | -11.45957 | 32847 ft | 400 kts | 257° |
| 2026-04-21 20:42 | 40.56991 | -11.53142 | 32844 ft | 400 kts | 257° |
| 2026-04-21 20:43 | 40.55930 | -11.60278 | 32841 ft | 400 kts | 257° |
| 2026-04-21 20:43 | 40.54856 | -11.67460 | 32844 ft | 400 kts | 257° |
| 2026-04-21 20:44 | 40.53783 | -11.74651 | 32846 ft | 400 kts | 256° |
| 2026-04-21 20:44 | 40.52694 | -11.81824 | 32838 ft | 400 kts | 257° |
| 2026-04-21 20:45 | 40.51621 | -11.89005 | 32821 ft | 401 kts | 257° |
| 2026-04-21 20:45 | 40.50535 | -11.96147 | 32838 ft | 401 kts | 257° |
| 2026-04-21 20:46 | 40.49439 | -12.03334 | 32837 ft | 401 kts | 257° |
| 2026-04-21 20:46 | 40.48329 | -12.10527 | 32845 ft | 401 kts | 256° |
| 2026-04-21 20:47 | 40.47229 | -12.17709 | 32836 ft | 401 kts | 257° |
| 2026-04-21 20:47 | 40.46131 | -12.24841 | 32831 ft | 401 kts | 257° |
| 2026-04-21 20:48 | 40.45015 | -12.32016 | 32826 ft | 401 kts | 256° |
| 2026-04-21 20:48 | 40.43892 | -12.39201 | 32825 ft | 401 kts | 256° |
| 2026-04-21 20:49 | 40.42772 | -12.46320 | 32834 ft | 401 kts | 256° |
| 2026-04-21 20:49 | 40.41647 | -12.53486 | 32824 ft | 401 kts | 256° |
| 2026-04-21 20:50 | 40.40515 | -12.60650 | 32821 ft | 401 kts | 256° |
| 2026-04-21 20:50 | 40.39379 | -12.67812 | 32817 ft | 401 kts | 256° |
| 2026-04-21 20:51 | 40.38244 | -12.74935 | 32816 ft | 401 kts | 256° |
| 2026-04-21 20:51 | 40.37100 | -12.82074 | 32822 ft | 399 kts | 256° |
| 2026-04-21 20:52 | 40.35956 | -12.89187 | 32819 ft | 399 kts | 257° |
| 2026-04-21 20:52 | 40.34816 | -12.96300 | 32809 ft | 399 kts | 256° |
| 2026-04-21 20:53 | 40.33671 | -13.03373 | 32812 ft | 399 kts | 256° |
| 2026-04-21 20:53 | 40.32518 | -13.10491 | 32804 ft | 399 kts | 256° |
| 2026-04-21 20:54 | 40.31355 | -13.17580 | 32812 ft | 395 kts | 257° |
| 2026-04-21 20:54 | 40.30195 | -13.24600 | 32797 ft | 394 kts | 257° |
| 2026-04-21 20:55 | 40.29057 | -13.31586 | 32794 ft | 394 kts | 257° |
| 2026-04-21 20:55 | 40.27906 | -13.38603 | 32787 ft | 394 kts | 257° |
| 2026-04-21 20:56 | 40.26745 | -13.45615 | 32786 ft | 394 kts | 257° |
| 2026-04-21 20:56 | 40.25579 | -13.52608 | 32807 ft | 391 kts | 257° |
| 2026-04-21 20:57 | 40.24417 | -13.59555 | 33075 ft | 390 kts | 257° |
| 2026-04-21 20:57 | 40.23845 | -13.62965 | 33277 ft | 389 kts | 256° |
| 2026-04-21 20:57 | 40.23261 | -13.66427 | 33467 ft | 389 kts | 256° |
| 2026-04-21 20:58 | 40.22683 | -13.69873 | 33656 ft | 388 kts | 256° |
| 2026-04-21 20:58 | 40.22102 | -13.73329 | 33791 ft | 389 kts | 256° |
| 2026-04-21 20:58 | 40.20937 | -13.80216 | 33785 ft | 387 kts | 256° |
| 2026-04-21 20:59 | 40.19774 | -13.87095 | 33777 ft | 387 kts | 257° |
| 2026-04-21 20:59 | 40.18616 | -13.93906 | 33759 ft | 385 kts | 257° |
| 2026-04-21 21:00 | 40.17429 | -14.00734 | 33766 ft | 385 kts | 256° |
| 2026-04-21 21:00 | 40.16234 | -14.07558 | 33757 ft | 385 kts | 257° |
| 2026-04-21 21:01 | 40.15083 | -14.14396 | 33753 ft | 385 kts | 256° |
| 2026-04-21 21:01 | 40.13911 | -14.21191 | 33752 ft | 385 kts | 257° |
| 2026-04-21 21:02 | 40.12734 | -14.28010 | 33750 ft | 385 kts | 256° |
| 2026-04-21 21:02 | 40.11542 | -14.34819 | 33747 ft | 385 kts | 256° |
| 2026-04-21 21:03 | 40.10356 | -14.41629 | 33737 ft | 385 kts | 256° |
| 2026-04-21 21:03 | 40.09166 | -14.48400 | 33739 ft | 385 kts | 256° |
| 2026-04-21 21:04 | 40.07968 | -14.55202 | 33730 ft | 384 kts | 256° |
| 2026-04-21 21:04 | 40.06771 | -14.61984 | 33756 ft | 382 kts | 256° |
| 2026-04-21 21:05 | 40.05579 | -14.68695 | 33731 ft | 382 kts | 256° |
| 2026-04-21 21:05 | 40.04375 | -14.75447 | 33731 ft | 382 kts | 256° |
| 2026-04-21 21:06 | 40.03172 | -14.82210 | 33717 ft | 382 kts | 256° |
| 2026-04-21 21:06 | 40.01963 | -14.88959 | 33715 ft | 382 kts | 256° |
| 2026-04-21 21:07 | 40.00748 | -14.95698 | 33715 ft | 380 kts | 256° |
| 2026-04-21 21:07 | 39.99553 | -15.02343 | 33708 ft | 379 kts | 257° |
| 2026-04-21 21:08 | 39.98373 | -15.09040 | 33712 ft | 378 kts | 257° |
| 2026-04-21 21:08 | 39.97194 | -15.15721 | 33711 ft | 378 kts | 257° |
| 2026-04-21 21:09 | 39.96009 | -15.22399 | 33699 ft | 378 kts | 256° |
| 2026-04-21 21:09 | 39.94822 | -15.29029 | 33695 ft | 378 kts | 256° |
| 2026-04-21 21:10 | 39.93629 | -15.35713 | 33694 ft | 378 kts | 256° |
| 2026-04-21 21:10 | 39.92432 | -15.42380 | 33691 ft | 378 kts | 256° |
| 2026-04-21 21:11 | 39.91231 | -15.49046 | 33691 ft | 378 kts | 256° |
| 2026-04-21 21:11 | 39.90035 | -15.55667 | 33690 ft | 378 kts | 256° |
| 2026-04-21 21:12 | 39.88824 | -15.62339 | 33686 ft | 378 kts | 256° |
| 2026-04-21 21:12 | 39.87612 | -15.68982 | 33688 ft | 376 kts | 256° |
| 2026-04-21 21:13 | 39.86402 | -15.75603 | 33684 ft | 376 kts | 256° |
| 2026-04-21 21:13 | 39.85189 | -15.82219 | 33676 ft | 376 kts | 256° |
| 2026-04-21 21:14 | 39.83974 | -15.88786 | 33672 ft | 376 kts | 256° |
| 2026-04-21 21:14 | 39.82754 | -15.95404 | 33669 ft | 376 kts | 256° |
| 2026-04-21 21:15 | 39.81533 | -16.02007 | 33677 ft | 374 kts | 257° |
| 2026-04-21 21:15 | 39.80313 | -16.08572 | 33664 ft | 373 kts | 257° |
| 2026-04-21 21:16 | 39.79100 | -16.15085 | 33665 ft | 373 kts | 257° |
| 2026-04-21 21:16 | 39.77875 | -16.21638 | 33659 ft | 373 kts | 257° |
| 2026-04-21 21:17 | 39.76642 | -16.28199 | 33659 ft | 373 kts | 257° |
| 2026-04-21 21:17 | 39.75407 | -16.34745 | 33657 ft | 373 kts | 256° |
| 2026-04-21 21:18 | 39.74180 | -16.41226 | 33656 ft | 371 kts | 257° |
| 2026-04-21 21:18 | 39.72944 | -16.47739 | 33656 ft | 371 kts | 257° |
| 2026-04-21 21:19 | 39.71701 | -16.54267 | 33651 ft | 372 kts | 257° |
| 2026-04-21 21:19 | 39.70451 | -16.60794 | 33653 ft | 373 kts | 256° |
| 2026-04-21 21:20 | 39.69197 | -16.67286 | 33648 ft | 373 kts | 257° |
| 2026-04-21 21:20 | 39.67952 | -16.73822 | 33651 ft | 373 kts | 257° |
| 2026-04-21 21:21 | 39.66699 | -16.80354 | 33653 ft | 372 kts | 257° |
| 2026-04-21 21:21 | 39.65435 | -16.86870 | 33647 ft | 372 kts | 257° |
| 2026-04-21 21:22 | 39.64177 | -16.93341 | 33637 ft | 373 kts | 257° |
| 2026-04-21 21:22 | 39.62908 | -16.99854 | 33636 ft | 373 kts | 257° |
| 2026-04-21 21:23 | 39.61636 | -17.06375 | 33648 ft | 372 kts | 257° |
| 2026-04-21 21:23 | 39.60367 | -17.12860 | 33637 ft | 371 kts | 257° |
| 2026-04-21 21:24 | 39.59101 | -17.19292 | 33636 ft | 371 kts | 257° |
| 2026-04-21 21:24 | 39.57827 | -17.25772 | 33634 ft | 372 kts | 257° |
| 2026-04-21 21:25 | 39.56540 | -17.32255 | 33635 ft | 372 kts | 257° |
| 2026-04-21 21:25 | 39.55254 | -17.38750 | 33626 ft | 372 kts | 257° |
| 2026-04-21 21:26 | 39.53979 | -17.45185 | 33630 ft | 371 kts | 257° |
| 2026-04-21 21:26 | 39.52688 | -17.51656 | 33624 ft | 371 kts | 257° |
| 2026-04-21 21:27 | 39.51391 | -17.58123 | 33624 ft | 371 kts | 256° |
| 2026-04-21 21:27 | 39.50084 | -17.64597 | 33622 ft | 371 kts | 257° |
| 2026-04-21 21:28 | 39.48788 | -17.71017 | 33619 ft | 371 kts | 256° |
| 2026-04-21 21:29 | 39.46831 | -17.80696 | 33624 ft | 370 kts | 256° |
| 2026-04-21 21:29 | 39.45522 | -17.87129 | 33622 ft | 370 kts | 256° |
| 2026-04-21 21:30 | 39.44214 | -17.93561 | 33615 ft | 370 kts | 256° |
| 2026-04-21 21:30 | 39.42898 | -17.99987 | 33617 ft | 370 kts | 256° |
| 2026-04-21 21:31 | 39.41580 | -18.06376 | 33617 ft | 370 kts | 256° |
| 2026-04-21 21:31 | 39.40264 | -18.12800 | 33611 ft | 370 kts | 256° |
| 2026-04-21 21:32 | 39.38940 | -18.19226 | 33613 ft | 370 kts | 256° |
| 2026-04-21 21:32 | 39.37619 | -18.25608 | 33615 ft | 370 kts | 256° |
| 2026-04-21 21:33 | 39.36283 | -18.32030 | 33614 ft | 370 kts | 256° |
| 2026-04-21 21:33 | 39.34947 | -18.38459 | 33613 ft | 370 kts | 256° |
| 2026-04-21 21:34 | 39.33608 | -18.44873 | 33620 ft | 370 kts | 256° |
| 2026-04-21 21:34 | 39.32278 | -18.51236 | 33609 ft | 369 kts | 256° |
| 2026-04-21 21:35 | 39.30935 | -18.57636 | 33602 ft | 369 kts | 256° |
| 2026-04-21 21:35 | 39.29581 | -18.64040 | 33605 ft | 369 kts | 256° |
| 2026-04-21 21:36 | 39.28237 | -18.70382 | 33610 ft | 369 kts | 256° |
| 2026-04-21 21:36 | 39.26895 | -18.76775 | 33608 ft | 369 kts | 256° |
| 2026-04-21 21:37 | 39.25539 | -18.83172 | 33607 ft | 369 kts | 256° |
| 2026-04-21 21:37 | 39.24181 | -18.89560 | 33605 ft | 369 kts | 256° |
| 2026-04-21 21:38 | 39.22825 | -18.95903 | 33603 ft | 369 kts | 256° |
| 2026-04-21 21:38 | 39.21455 | -19.02285 | 33604 ft | 369 kts | 255° |
| 2026-04-21 21:39 | 39.20081 | -19.08664 | 33607 ft | 369 kts | 255° |
| 2026-04-21 21:39 | 39.18703 | -19.15048 | 33601 ft | 369 kts | 255° |
| 2026-04-21 21:40 | 39.17321 | -19.21417 | 33604 ft | 369 kts | 255° |
| 2026-04-21 21:40 | 39.15952 | -19.27745 | 33605 ft | 369 kts | 255° |
| 2026-04-21 21:41 | 39.14566 | -19.34124 | 33609 ft | 369 kts | 255° |
| 2026-04-21 21:41 | 39.13178 | -19.40488 | 33605 ft | 369 kts | 255° |
| 2026-04-21 21:42 | 39.11785 | -19.46850 | 33600 ft | 369 kts | 255° |
| 2026-04-21 21:42 | 39.10399 | -19.53162 | 33602 ft | 369 kts | 255° |
| 2026-04-21 21:43 | 39.09003 | -19.59514 | 33601 ft | 369 kts | 255° |
| 2026-04-21 21:43 | 39.07600 | -19.65877 | 33603 ft | 369 kts | 255° |
| 2026-04-21 21:44 | 39.06193 | -19.72225 | 33608 ft | 369 kts | 255° |
| 2026-04-21 21:44 | 39.04793 | -19.78526 | 33609 ft | 369 kts | 255° |
| 2026-04-21 21:45 | 39.03377 | -19.84864 | 33610 ft | 369 kts | 255° |
| 2026-04-21 21:45 | 39.01960 | -19.91208 | 33609 ft | 369 kts | 255° |
| 2026-04-21 21:46 | 39.00554 | -19.97544 | 33604 ft | 368 kts | 256° |
| 2026-04-21 21:46 | 38.99998 | -20.04026 | 33607 ft | 370 kts | 268° |
| 2026-04-21 21:47 | 39.00125 | -20.10635 | 33606 ft | 370 kts | 269° |
| 2026-04-21 21:47 | 39.00236 | -20.17255 | 33605 ft | 370 kts | 269° |
| 2026-04-21 21:48 | 39.00323 | -20.23860 | 33605 ft | 370 kts | 268° |
| 2026-04-21 21:48 | 39.00407 | -20.30468 | 33607 ft | 370 kts | 269° |
| 2026-04-21 21:49 | 39.00493 | -20.37032 | 33608 ft | 370 kts | 268° |
| 2026-04-21 21:49 | 39.00573 | -20.43651 | 33606 ft | 370 kts | 269° |
| 2026-04-21 21:50 | 39.00652 | -20.50258 | 33608 ft | 370 kts | 269° |
| 2026-04-21 21:50 | 39.00733 | -20.56817 | 33610 ft | 369 kts | 269° |
| 2026-04-21 21:51 | 39.00808 | -20.63418 | 33610 ft | 369 kts | 268° |
| 2026-04-21 21:51 | 39.00878 | -20.70019 | 33610 ft | 369 kts | 268° |
| 2026-04-21 21:52 | 39.00942 | -20.76630 | 33613 ft | 369 kts | 268° |
| 2026-04-21 21:52 | 39.00998 | -20.83184 | 33619 ft | 369 kts | 268° |
| 2026-04-21 21:53 | 39.01054 | -20.89774 | 33610 ft | 369 kts | 268° |
| 2026-04-21 21:53 | 39.01105 | -20.96363 | 33611 ft | 369 kts | 268° |
| 2026-04-21 21:54 | 39.01154 | -21.02963 | 33611 ft | 369 kts | 268° |
| 2026-04-21 21:54 | 39.01200 | -21.09552 | 33610 ft | 369 kts | 268° |
| 2026-04-21 21:55 | 39.01238 | -21.16097 | 33626 ft | 369 kts | 268° |
| 2026-04-21 21:55 | 39.01273 | -21.22688 | 33612 ft | 369 kts | 268° |
| 2026-04-21 21:56 | 39.01307 | -21.29291 | 33612 ft | 369 kts | 268° |
| 2026-04-21 21:56 | 39.01335 | -21.35839 | 33610 ft | 369 kts | 268° |
| 2026-04-21 21:57 | 39.01359 | -21.42431 | 33604 ft | 369 kts | 268° |
| 2026-04-21 21:57 | 39.01382 | -21.49025 | 33607 ft | 369 kts | 268° |
| 2026-04-21 21:58 | 39.01401 | -21.55624 | 33614 ft | 369 kts | 268° |
| 2026-04-21 21:58 | 39.01415 | -21.62235 | 33607 ft | 369 kts | 268° |
| 2026-04-21 21:59 | 39.01421 | -21.68791 | 33613 ft | 369 kts | 268° |
| 2026-04-21 21:59 | 39.01424 | -21.75389 | 33602 ft | 369 kts | 268° |
| 2026-04-21 22:00 | 39.01431 | -21.81998 | 33609 ft | 369 kts | 268° |
| 2026-04-21 22:00 | 39.01432 | -21.88595 | 33610 ft | 369 kts | 268° |
| 2026-04-21 22:01 | 39.01430 | -21.95147 | 33629 ft | 369 kts | 268° |
| 2026-04-21 22:01 | 39.01424 | -22.01746 | 33625 ft | 369 kts | 268° |
| 2026-04-21 22:02 | 39.01410 | -22.08358 | 33611 ft | 369 kts | 268° |
| 2026-04-21 22:02 | 39.01395 | -22.14959 | 33602 ft | 369 kts | 267° |
| 2026-04-21 22:03 | 39.01373 | -22.21560 | 33602 ft | 369 kts | 267° |
| 2026-04-21 22:03 | 39.01353 | -22.28118 | 33602 ft | 369 kts | 267° |
| 2026-04-21 22:04 | 39.01326 | -22.34718 | 33606 ft | 369 kts | 267° |
| 2026-04-21 22:04 | 39.01296 | -22.41330 | 33606 ft | 369 kts | 267° |
| 2026-04-21 22:05 | 39.01263 | -22.47930 | 33613 ft | 369 kts | 267° |
| 2026-04-21 22:05 | 39.01223 | -22.54492 | 33612 ft | 370 kts | 267° |
| 2026-04-21 22:06 | 39.01180 | -22.61109 | 33605 ft | 370 kts | 267° |
| 2026-04-21 22:06 | 39.01138 | -22.67714 | 33604 ft | 370 kts | 267° |
| 2026-04-21 22:07 | 39.01085 | -22.74284 | 33605 ft | 370 kts | 267° |
| 2026-04-21 22:07 | 39.01032 | -22.80900 | 33602 ft | 370 kts | 267° |
| 2026-04-21 22:08 | 39.00975 | -22.87506 | 33603 ft | 370 kts | 267° |
| 2026-04-21 22:08 | 39.00915 | -22.94122 | 33602 ft | 370 kts | 267° |
| 2026-04-21 22:09 | 39.00851 | -23.00686 | 33648 ft | 370 kts | 267° |
| 2026-04-21 22:09 | 39.00784 | -23.07299 | 33611 ft | 370 kts | 267° |
| 2026-04-21 22:10 | 39.00711 | -23.13914 | 33598 ft | 370 kts | 267° |
| 2026-04-21 22:10 | 39.00634 | -23.20496 | 33603 ft | 370 kts | 267° |
| 2026-04-21 22:11 | 39.00556 | -23.27110 | 33601 ft | 370 kts | 267° |
| 2026-04-21 22:11 | 39.00473 | -23.33723 | 33602 ft | 370 kts | 267° |
| 2026-04-21 22:12 | 39.00390 | -23.40336 | 33604 ft | 370 kts | 266° |
| 2026-04-21 22:12 | 39.00296 | -23.46919 | 33605 ft | 371 kts | 266° |
| 2026-04-21 22:13 | 39.00200 | -23.53546 | 33604 ft | 371 kts | 266° |
| 2026-04-21 22:13 | 39.00101 | -23.60172 | 33603 ft | 371 kts | 266° |
| 2026-04-21 22:14 | 38.99995 | -23.66798 | 33601 ft | 371 kts | 265° |
| 2026-04-21 22:14 | 38.99404 | -23.73361 | 33605 ft | 370 kts | 261° |
| 2026-04-21 22:15 | 38.98690 | -23.79879 | 33602 ft | 371 kts | 261° |
| 2026-04-21 22:15 | 38.97975 | -23.86440 | 33608 ft | 371 kts | 261° |
| 2026-04-21 22:16 | 38.97260 | -23.93000 | 33611 ft | 371 kts | 261° |
| 2026-04-21 22:16 | 38.96546 | -23.99562 | 33611 ft | 371 kts | 261° |
| 2026-04-21 22:17 | 38.95832 | -24.06089 | 33607 ft | 371 kts | 261° |
| 2026-04-21 22:17 | 38.95108 | -24.12655 | 33608 ft | 372 kts | 261° |
| 2026-04-21 22:18 | 38.94381 | -24.19225 | 33608 ft | 372 kts | 261° |
| 2026-04-21 22:18 | 38.93659 | -24.25796 | 33608 ft | 372 kts | 261° |
| 2026-04-21 22:19 | 38.92936 | -24.32333 | 33612 ft | 372 kts | 261° |
| 2026-04-21 22:19 | 38.92199 | -24.38899 | 33602 ft | 372 kts | 261° |
| 2026-04-21 22:20 | 38.91457 | -24.45456 | 33619 ft | 371 kts | 261° |
| 2026-04-21 22:20 | 38.90714 | -24.52007 | 33616 ft | 371 kts | 261° |
| 2026-04-21 22:21 | 38.89969 | -24.58524 | 33619 ft | 371 kts | 261° |
| 2026-04-21 22:21 | 38.89216 | -24.65071 | 33622 ft | 371 kts | 261° |
| 2026-04-21 22:22 | 38.88460 | -24.71616 | 33618 ft | 371 kts | 261° |
| 2026-04-21 22:22 | 38.87701 | -24.78154 | 33617 ft | 370 kts | 261° |
| 2026-04-21 22:22 | 38.87320 | -24.81423 | 33464 ft | 368 kts | 261° |
| 2026-04-21 22:23 | 38.86945 | -24.84639 | 32928 ft | 363 kts | 261° |
| 2026-04-21 22:23 | 38.86577 | -24.87785 | 32330 ft | 360 kts | 261° |
| 2026-04-21 22:23 | 38.86204 | -24.90962 | 31691 ft | 360 kts | 261° |
| 2026-04-21 22:23 | 38.85833 | -24.94129 | 31026 ft | 360 kts | 261° |
| 2026-04-21 22:24 | 38.85459 | -24.97309 | 30399 ft | 360 kts | 261° |
| 2026-04-21 22:24 | 38.85082 | -25.00486 | 29784 ft | 360 kts | 261° |
| 2026-04-21 22:24 | 38.84708 | -25.03651 | 29036 ft | 359 kts | 262° |
| 2026-04-21 22:24 | 38.84330 | -25.06820 | 28341 ft | 358 kts | 262° |
| 2026-04-21 22:25 | 38.83957 | -25.09967 | 27686 ft | 357 kts | 262° |
| 2026-04-21 22:25 | 38.83583 | -25.13085 | 27054 ft | 359 kts | 262° |
| 2026-04-21 22:25 | 38.83204 | -25.16261 | 26340 ft | 361 kts | 262° |
| 2026-04-21 22:25 | 38.82824 | -25.19448 | 25598 ft | 364 kts | 262° |
| 2026-04-21 22:26 | 38.82438 | -25.22669 | 24858 ft | 366 kts | 262° |
| 2026-04-21 22:26 | 38.82050 | -25.25906 | 24182 ft | 370 kts | 262° |
| 2026-04-21 22:26 | 38.81654 | -25.29178 | 23565 ft | 372 kts | 262° |
| 2026-04-21 22:26 | 38.81256 | -25.32463 | 23000 ft | 372 kts | 262° |
| 2026-04-21 22:27 | 38.80860 | -25.35718 | 22374 ft | 369 kts | 262° |
| 2026-04-21 22:27 | 38.80465 | -25.38955 | 21876 ft | 366 kts | 262° |
| 2026-04-21 22:27 | 38.80066 | -25.42216 | 21566 ft | 379 kts | 262° |
| 2026-04-21 22:27 | 38.79664 | -25.45514 | 21289 ft | 384 kts | 262° |
| 2026-04-21 22:28 | 38.79253 | -25.48886 | 20944 ft | 379 kts | 262° |
| 2026-04-21 22:28 | 38.78850 | -25.52177 | 20459 ft | 371 kts | 262° |
| 2026-04-21 22:28 | 38.78451 | -25.55412 | 19936 ft | 364 kts | 262° |
| 2026-04-21 22:28 | 38.78060 | -25.58581 | 19493 ft | 355 kts | 262° |
| 2026-04-21 22:29 | 38.77678 | -25.61670 | 19063 ft | 351 kts | 262° |
| 2026-04-21 22:29 | 38.77297 | -25.64751 | 18572 ft | 349 kts | 262° |
| 2026-04-21 22:29 | 38.76919 | -25.67779 | 18104 ft | 347 kts | 262° |
| 2026-04-21 22:29 | 38.76536 | -25.70858 | 17509 ft | 345 kts | 262° |
| 2026-04-21 22:30 | 38.76163 | -25.73847 | 16946 ft | 343 kts | 262° |
| 2026-04-21 22:30 | 38.75786 | -25.76852 | 16470 ft | 342 kts | 262° |
| 2026-04-21 22:30 | 38.75410 | -25.79853 | 16017 ft | 340 kts | 262° |
| 2026-04-21 22:30 | 38.75035 | -25.82843 | 15586 ft | 339 kts | 262° |
| 2026-04-21 22:31 | 38.74662 | -25.85814 | 15155 ft | 338 kts | 262° |
| 2026-04-21 22:31 | 38.74288 | -25.88785 | 14713 ft | 337 kts | 262° |
| 2026-04-21 22:31 | 38.73916 | -25.91736 | 14331 ft | 336 kts | 262° |
| 2026-04-21 22:31 | 38.73542 | -25.94688 | 13988 ft | 335 kts | 262° |
| 2026-04-21 22:32 | 38.73171 | -25.97590 | 13654 ft | 333 kts | 261° |
| 2026-04-21 22:32 | 38.72797 | -26.00519 | 13301 ft | 333 kts | 262° |
| 2026-04-21 22:32 | 38.72427 | -26.03427 | 12911 ft | 331 kts | 262° |
| 2026-04-21 22:32 | 38.72057 | -26.06326 | 12438 ft | 328 kts | 262° |
| 2026-04-21 22:33 | 38.71688 | -26.09207 | 12004 ft | 327 kts | 262° |
| 2026-04-21 22:33 | 38.71324 | -26.12046 | 11598 ft | 318 kts | 262° |
| 2026-04-21 22:33 | 38.70973 | -26.14779 | 11361 ft | 303 kts | 262° |
| 2026-04-21 22:33 | 38.70641 | -26.17378 | 11182 ft | 288 kts | 262° |
| 2026-04-21 22:34 | 38.70328 | -26.19808 | 11033 ft | 274 kts | 262° |
| 2026-04-21 22:34 | 38.70026 | -26.22157 | 10898 ft | 260 kts | 262° |
| 2026-04-21 22:34 | 38.69738 | -26.24386 | 10775 ft | 247 kts | 262° |
| 2026-04-21 22:34 | 38.69464 | -26.26508 | 10523 ft | 239 kts | 262° |
| 2026-04-21 22:35 | 38.69195 | -26.28599 | 10149 ft | 236 kts | 262° |
| 2026-04-21 22:35 | 38.68928 | -26.30658 | 9906 ft | 232 kts | 262° |
| 2026-04-21 22:35 | 38.68666 | -26.32681 | 9655 ft | 230 kts | 262° |
| 2026-04-21 22:35 | 38.68407 | -26.34670 | 9362 ft | 229 kts | 262° |
| 2026-04-21 22:36 | 38.67885 | -26.38675 | 8778 ft | 226 kts | 262° |
| 2026-04-21 22:36 | 38.67626 | -26.40651 | 8504 ft | 225 kts | 262° |
| 2026-04-21 22:36 | 38.67369 | -26.42617 | 8234 ft | 223 kts | 262° |
| 2026-04-21 22:37 | 38.67115 | -26.44556 | 7965 ft | 220 kts | 263° |
| 2026-04-21 22:37 | 38.66861 | -26.46487 | 7714 ft | 218 kts | 262° |
| 2026-04-21 22:37 | 38.66612 | -26.48385 | 7461 ft | 217 kts | 262° |
| 2026-04-21 22:37 | 38.66365 | -26.50269 | 7223 ft | 218 kts | 262° |
| 2026-04-21 22:38 | 38.66113 | -26.52183 | 6972 ft | 218 kts | 262° |
| 2026-04-21 22:38 | 38.65858 | -26.54099 | 6707 ft | 218 kts | 263° |
| 2026-04-21 22:38 | 38.65605 | -26.56013 | 6444 ft | 219 kts | 263° |
| 2026-04-21 22:38 | 38.65352 | -26.57936 | 6175 ft | 219 kts | 263° |
| 2026-04-21 22:39 | 38.65100 | -26.59844 | 5902 ft | 221 kts | 263° |
| 2026-04-21 22:39 | 38.64843 | -26.61769 | 5625 ft | 219 kts | 263° |
| 2026-04-21 22:39 | 38.64588 | -26.63687 | 5353 ft | 218 kts | 263° |
| 2026-04-21 22:39 | 38.64332 | -26.65604 | 5088 ft | 218 kts | 263° |
| 2026-04-21 22:40 | 38.64073 | -26.67565 | 4893 ft | 235 kts | 263° |
| 2026-04-21 22:40 | 38.63796 | -26.69638 | 4738 ft | 237 kts | 263° |
| 2026-04-21 22:40 | 38.63519 | -26.71708 | 4576 ft | 236 kts | 263° |
| 2026-04-21 22:40 | 38.63242 | -26.73766 | 4326 ft | 233 kts | 263° |
| 2026-04-21 22:41 | 38.62970 | -26.75800 | 4046 ft | 232 kts | 263° |
| 2026-04-21 22:41 | 38.62701 | -26.77811 | 3758 ft | 232 kts | 263° |
| 2026-04-21 22:41 | 38.62426 | -26.79849 | 3467 ft | 232 kts | 263° |
| 2026-04-21 22:41 | 38.62148 | -26.81879 | 3173 ft | 232 kts | 263° |
| 2026-04-21 22:42 | 38.61876 | -26.83904 | 2882 ft | 232 kts | 263° |
| 2026-04-21 22:42 | 38.61604 | -26.85936 | 2595 ft | 231 kts | 263° |
| 2026-04-21 22:42 | 38.61332 | -26.87962 | 2303 ft | 231 kts | 263° |
| 2026-04-21 22:42 | 38.61063 | -26.89982 | 2036 ft | 233 kts | 264° |
| 2026-04-21 22:43 | 38.60988 | -26.91985 | 1956 ft | 217 kts | 279° |
| 2026-04-21 22:43 | 38.61516 | -26.93667 | 1958 ft | 203 kts | 306° |
| 2026-04-21 22:43 | 38.62503 | -26.94901 | 1962 ft | 190 kts | 320° |
| 2026-04-21 22:43 | 38.63462 | -26.95808 | 2012 ft | 152 kts | 317° |
| 2026-04-21 22:44 | 38.64197 | -26.96558 | 1990 ft | 124 kts | 316° |
| 2026-04-21 22:44 | 38.64859 | -26.97247 | 1981 ft | 123 kts | 316° |
| 2026-04-21 22:44 | 38.65521 | -26.97937 | 1986 ft | 122 kts | 316° |
| 2026-04-21 22:44 | 38.66182 | -26.98626 | 1989 ft | 122 kts | 316° |
| 2026-04-21 22:45 | 38.66839 | -26.99312 | 1994 ft | 122 kts | 316° |
| 2026-04-21 22:45 | 38.67487 | -26.99988 | 1993 ft | 121 kts | 316° |
| 2026-04-21 22:45 | 38.68141 | -27.00671 | 1993 ft | 120 kts | 317° |
| 2026-04-21 22:45 | 38.68779 | -27.01338 | 1968 ft | 120 kts | 317° |
| 2026-04-21 22:46 | 38.69427 | -27.02014 | 1823 ft | 120 kts | 316° |
| 2026-04-21 22:46 | 38.70073 | -27.02688 | 1653 ft | 120 kts | 316° |
| 2026-04-21 22:46 | 38.70723 | -27.03366 | 1473 ft | 121 kts | 315° |
| 2026-04-21 22:46 | 38.71377 | -27.04048 | 1298 ft | 122 kts | 315° |
| 2026-04-21 22:47 | 38.72027 | -27.04726 | 1120 ft | 120 kts | 315° |
| 2026-04-21 22:47 | 38.72674 | -27.05401 | 944 ft | 123 kts | 316° |
| 2026-04-21 22:47 | 38.73318 | -27.06072 | 755 ft | 114 kts | 318° |
| 2026-04-21 22:47 | 38.73940 | -27.06724 | 611 ft | 118 kts | 319° |
| 2026-04-21 22:48 | 38.74570 | -27.07381 | 450 ft | 116 kts | 316° |
| 2026-04-21 22:48 | 38.75188 | -27.08035 | 269 ft | 115 kts | 316° |
| 2026-04-21 22:48 | 38.75816 | -27.08686 | 186 ft | 115 kts | 315° |
| 2026-04-21 22:48 | 38.76280 | -27.09180 | 184 ft | 46 kts | 321° |
| 2026-04-21 22:49 | 38.76413 | -27.09320 | 186 ft | 22 kts | 320° |
| 2026-04-21 22:49 | 38.76533 | -27.09447 | 184 ft | 23 kts | 322° |
| 2026-04-21 22:49 | 38.76667 | -27.09578 | 188 ft | 25 kts | 322° |
| 2026-04-21 22:49 | 38.76805 | -27.09725 | 189 ft | 26 kts | 321° |
| 2026-04-21 22:50 | 38.76951 | -27.09877 | 183 ft | 28 kts | 320° |
| 2026-04-21 22:50 | 38.77102 | -27.10037 | 182 ft | 29 kts | 321° |
| 2026-04-21 22:50 | 38.77173 | -27.10106 | 182 ft | 3 kts | 346° |
| 2026-04-21 22:50 | 38.77232 | -27.10057 | 182 ft | 14 kts | 47° |
| 2026-04-21 22:51 | 38.77246 | -27.09942 | 183 ft | 16 kts | 137° |
| 2026-04-21 22:51 | 38.77157 | -27.09850 | 183 ft | 18 kts | 140° |
| 2026-04-21 22:51 | 38.77055 | -27.09742 | 183 ft | 19 kts | 140° |
| 2026-04-21 22:51 | 38.76948 | -27.09630 | 184 ft | 20 kts | 141° |
| 2026-04-21 22:52 | 38.76857 | -27.09536 | 184 ft | 16 kts | 141° |
| 2026-04-21 22:52 | 38.76768 | -27.09443 | 187 ft | 17 kts | 141° |
| 2026-04-21 22:52 | 38.76670 | -27.09340 | 183 ft | 19 kts | 141° |
| 2026-04-21 22:52 | 38.76563 | -27.09228 | 183 ft | 21 kts | 141° |
| 2026-04-21 22:53 | 38.76473 | -27.09133 | 183 ft | 6 kts | 140° |
| 2026-04-21 22:53 | 38.76436 | -27.09093 | 183 ft | 8 kts | 140° |
| 2026-04-21 22:53 | 38.76388 | -27.09042 | 183 ft | 10 kts | 141° |
| 2026-04-21 22:53 | 38.76327 | -27.08979 | 183 ft | 12 kts | 141° |
| 2026-04-21 22:54 | 38.76254 | -27.08904 | 183 ft | 14 kts | 141° |
| 2026-04-21 22:54 | 38.76171 | -27.08819 | 184 ft | 16 kts | 142° |
| 2026-04-21 22:54 | 38.76076 | -27.08724 | 187 ft | 18 kts | 139° |
| 2026-04-21 22:54 | 38.75977 | -27.08613 | 184 ft | 20 kts | 142° |
| 2026-04-21 22:55 | 38.75864 | -27.08500 | 184 ft | 21 kts | 140° |
| 2026-04-21 22:55 | 38.75793 | -27.08425 | 183 ft | 5 kts | 140° |
| 2026-04-21 22:55 | 38.75748 | -27.08394 | 183 ft | 7 kts | 193° |
| 2026-04-21 22:55 | 38.75707 | -27.08445 | 184 ft | 10 kts | 233° |
| 2026-04-21 22:56 | 38.75656 | -27.08513 | 184 ft | 12 kts | 196° |
| 2026-04-21 22:56 | 38.75585 | -27.08451 | 188 ft | 14 kts | 140° |
| 2026-04-21 22:56 | 38.75523 | -27.08427 | 184 ft | 11 kts | 219° |
| 2026-04-21 22:56 | 38.75464 | -27.08506 | 184 ft | 13 kts | 246° |
| 2026-04-21 22:57 | 38.75501 | -27.08614 | 184 ft | 15 kts | 326° |
| 2026-04-21 22:57 | 38.75498 | -27.08701 | 183 ft | 6 kts | 233° |
| 2026-04-21 22:57 | 38.75480 | -27.08730 | 183 ft | 0 kts | 231° |
| 2026-04-21 22:57 | 38.75479 | -27.08731 | 183 ft | 1 kts | 231° |
| 2026-04-21 22:58 | 38.75471 | -27.08745 | 183 ft | 0 kts | 231° |
| 2026-04-21 22:59 | 38.75471 | -27.08744 | 183 ft | 0 kts | 231° |
| 2026-04-21 23:05 | 38.75471 | -27.08743 | 183 ft | 0 kts | 231° |
| 2026-04-21 23:07 | 38.75472 | -27.08743 | 183 ft | 0 kts | 231° |